createdAt,value
2022-11-08T00:00:15.772Z,16.44
2022-11-08T00:01:15.971Z,16.42
2022-11-08T00:02:16.239Z,16.44
2022-11-08T00:03:16.322Z,16.47
2022-11-08T00:04:16.435Z,16.47
2022-11-08T00:05:16.618Z,16.42
2022-11-08T00:06:16.839Z,16.39
2022-11-08T00:07:16.991Z,16.41
2022-11-08T00:08:17.475Z,16.42
2022-11-08T00:09:17.322Z,16.41
2022-11-08T00:10:17.508Z,16.39
2022-11-08T00:11:17.713Z,16.41
2022-11-08T00:12:17.846Z,16.38
2022-11-08T00:13:18.031Z,16.39
2022-11-08T00:14:18.222Z,16.35
2022-11-08T00:15:18.392Z,16.38
2022-11-08T00:16:18.581Z,16.36
2022-11-08T00:17:18.783Z,16.36
2022-11-08T00:18:19.239Z,16.38
2022-11-08T00:19:19.101Z,16.32
2022-11-08T00:20:19.328Z,16.32
2022-11-08T00:21:19.464Z,16.31
2022-11-08T00:22:19.662Z,16.32
2022-11-08T00:23:19.835Z,16.29
2022-11-08T00:24:19.975Z,16.29
2022-11-08T00:25:20.165Z,16.34
2022-11-08T00:26:20.346Z,16.32
2022-11-08T00:27:20.545Z,16.29
2022-11-08T00:28:20.751Z,16.26
2022-11-08T00:29:20.921Z,16.28
2022-11-08T00:30:21.058Z,16.25
2022-11-08T00:31:21.247Z,16.26
2022-11-08T00:32:21.420Z,16.26
2022-11-08T00:33:21.659Z,16.25
2022-11-08T00:34:21.781Z,16.28
2022-11-08T00:35:21.949Z,16.25
2022-11-08T00:36:22.138Z,16.20
2022-11-08T00:37:22.325Z,16.23
2022-11-08T00:38:22.523Z,16.23
2022-11-08T00:39:22.694Z,16.23
2022-11-08T00:40:22.886Z,16.21
2022-11-08T00:41:23.082Z,16.21
2022-11-08T00:42:23.215Z,16.14
2022-11-08T00:43:23.440Z,16.20
2022-11-08T00:44:23.670Z,16.17
2022-11-08T00:45:23.772Z,16.16
2022-11-08T00:46:23.961Z,16.16
2022-11-08T00:47:24.112Z,16.13
2022-11-08T00:48:24.307Z,16.14
2022-11-08T00:49:24.442Z,16.13
2022-11-08T00:50:24.626Z,16.14
2022-11-08T00:51:24.812Z,16.13
2022-11-08T00:52:24.996Z,16.14
2022-11-08T00:53:25.193Z,16.13
2022-11-08T00:54:25.341Z,16.10
2022-11-08T00:55:25.503Z,16.14
2022-11-08T00:56:25.695Z,16.11
2022-11-08T00:57:41.110Z,16.10
2022-11-08T00:58:27.838Z,16.07
2022-11-08T00:59:26.230Z,16.10
2022-11-08T01:00:26.402Z,16.05
2022-11-08T01:01:26.724Z,16.09
2022-11-08T01:02:26.841Z,16.04
2022-11-08T01:03:26.955Z,16.05
2022-11-08T01:04:27.138Z,16.05
2022-11-08T01:05:27.281Z,16.05
2022-11-08T01:06:27.472Z,16.04
2022-11-08T01:07:27.660Z,16.04
2022-11-08T01:08:27.869Z,16.04
2022-11-08T01:09:28.012Z,16.01
2022-11-08T01:10:28.210Z,16.02
2022-11-08T01:11:28.353Z,15.99
2022-11-08T01:12:28.540Z,15.98
2022-11-08T01:13:28.744Z,15.99
2022-11-08T01:14:28.892Z,15.98
2022-11-08T01:15:29.102Z,15.95
2022-11-08T01:16:29.272Z,15.94
2022-11-08T01:17:29.453Z,15.98
2022-11-08T01:18:29.867Z,15.94
2022-11-08T01:19:29.801Z,15.94
2022-11-08T01:20:29.987Z,15.95
2022-11-08T01:21:30.172Z,15.94
2022-11-08T01:22:30.355Z,15.95
2022-11-08T01:23:30.569Z,15.91
2022-11-08T01:24:30.703Z,15.91
2022-11-08T01:25:30.893Z,15.92
2022-11-08T01:26:31.067Z,15.92
2022-11-08T01:27:31.253Z,15.91
2022-11-08T01:28:31.661Z,15.89
2022-11-08T01:29:31.615Z,15.91
2022-11-08T01:30:31.784Z,15.91
2022-11-08T01:31:31.972Z,15.87
2022-11-08T01:32:32.156Z,15.87
2022-11-08T01:33:32.376Z,15.91
2022-11-08T01:34:32.516Z,15.87
2022-11-08T01:35:32.706Z,15.87
2022-11-08T01:36:32.877Z,15.87
2022-11-08T01:37:33.068Z,15.86
2022-11-08T01:38:33.268Z,15.86
2022-11-08T01:39:33.438Z,15.87
2022-11-08T01:40:33.624Z,15.84
2022-11-08T01:41:33.816Z,15.87
2022-11-08T01:42:33.988Z,15.84
2022-11-08T01:43:34.209Z,15.83
2022-11-08T01:44:34.359Z,15.81
2022-11-08T01:45:34.529Z,15.83
2022-11-08T01:46:34.727Z,15.84
2022-11-08T01:47:34.899Z,15.84
2022-11-08T01:48:35.109Z,15.81
2022-11-08T01:49:35.250Z,15.84
2022-11-08T01:50:35.431Z,15.83
2022-11-08T01:51:35.625Z,15.81
2022-11-08T01:52:35.793Z,15.79
2022-11-08T01:53:36.005Z,15.80
2022-11-08T01:54:36.132Z,15.77
2022-11-08T01:55:36.321Z,15.81
2022-11-08T01:56:36.519Z,15.81
2022-11-08T01:57:36.716Z,15.80
2022-11-08T01:58:36.852Z,15.77
2022-11-08T01:59:37.033Z,15.77
2022-11-08T02:00:37.239Z,15.77
2022-11-08T02:01:37.468Z,15.79
2022-11-08T02:02:37.611Z,15.74
2022-11-08T02:03:37.734Z,15.76
2022-11-08T02:04:37.915Z,15.77
2022-11-08T02:05:38.114Z,15.76
2022-11-08T02:06:38.284Z,15.76
2022-11-08T02:07:38.466Z,15.73
2022-11-08T02:08:38.662Z,15.74
2022-11-08T02:09:38.845Z,15.73
2022-11-08T02:10:39.055Z,15.70
2022-11-08T02:11:39.206Z,15.76
2022-11-08T02:12:39.376Z,15.74
2022-11-08T02:13:39.574Z,15.70
2022-11-08T02:14:39.737Z,15.70
2022-11-08T02:15:39.948Z,15.71
2022-11-08T02:16:40.078Z,15.71
2022-11-08T02:17:40.262Z,15.68
2022-11-08T02:18:40.454Z,15.71
2022-11-08T02:19:40.638Z,15.68
2022-11-08T02:20:40.835Z,15.66
2022-11-08T02:21:40.969Z,15.68
2022-11-08T02:22:41.162Z,15.70
2022-11-08T02:23:41.350Z,15.66
2022-11-08T02:24:41.521Z,15.66
2022-11-08T02:25:41.961Z,15.66
2022-11-08T02:26:41.899Z,15.68
2022-11-08T02:27:42.081Z,15.63
2022-11-08T02:28:42.260Z,15.63
2022-11-08T02:29:42.442Z,15.65
2022-11-08T02:30:42.631Z,15.65
2022-11-08T02:31:42.834Z,15.57
2022-11-08T02:32:42.972Z,15.62
2022-11-08T02:33:43.152Z,15.62
2022-11-08T02:34:43.332Z,15.63
2022-11-08T02:35:43.514Z,15.62
2022-11-08T02:36:43.704Z,15.57
2022-11-08T02:37:43.885Z,15.57
2022-11-08T02:38:44.065Z,15.58
2022-11-08T02:39:44.282Z,15.60
2022-11-08T02:40:44.420Z,15.57
2022-11-08T02:41:44.595Z,15.57
2022-11-08T02:42:44.776Z,15.58
2022-11-08T02:43:44.946Z,15.57
2022-11-08T02:44:45.173Z,15.60
2022-11-08T02:45:45.315Z,15.58
2022-11-08T02:46:45.501Z,15.57
2022-11-08T02:47:45.681Z,15.55
2022-11-08T02:48:45.857Z,15.54
2022-11-08T02:49:46.058Z,15.51
2022-11-08T02:50:46.300Z,15.54
2022-11-08T02:51:46.398Z,15.51
2022-11-08T02:52:46.579Z,15.53
2022-11-08T02:53:46.770Z,15.55
2022-11-08T02:54:46.950Z,15.54
2022-11-08T02:57:02.226Z,15.49
2022-11-08T02:58:02.370Z,15.46
2022-11-08T02:59:02.526Z,15.40
2022-11-08T03:00:02.717Z,15.43
2022-11-08T03:01:02.959Z,15.42
2022-11-08T03:02:03.199Z,15.42
2022-11-08T03:03:03.257Z,15.45
2022-11-08T03:04:03.428Z,15.43
2022-11-08T03:05:03.618Z,15.43
2022-11-08T03:06:03.797Z,15.45
2022-11-08T03:07:03.998Z,15.45
2022-11-08T03:08:04.170Z,15.45
2022-11-08T03:09:04.346Z,15.45
2022-11-08T03:10:04.530Z,15.47
2022-11-08T03:11:04.710Z,15.42
2022-11-08T03:12:04.917Z,15.40
2022-11-08T03:13:05.050Z,15.47
2022-11-08T03:14:05.238Z,15.42
2022-11-08T03:15:05.439Z,15.45
2022-11-08T03:16:05.586Z,15.43
2022-11-08T03:17:05.753Z,15.45
2022-11-08T03:18:05.942Z,15.47
2022-11-08T03:19:06.120Z,15.46
2022-11-08T03:20:06.321Z,15.45
2022-11-08T03:21:06.456Z,15.45
2022-11-08T03:22:06.646Z,15.45
2022-11-08T03:23:06.830Z,15.46
2022-11-08T03:24:07.003Z,15.43
2022-11-08T03:25:07.195Z,15.46
2022-11-08T03:26:07.377Z,15.45
2022-11-08T03:27:07.566Z,15.45
2022-11-08T03:28:07.745Z,15.46
2022-11-08T03:29:07.937Z,15.43
2022-11-08T03:30:08.113Z,15.45
2022-11-08T03:31:08.310Z,15.45
2022-11-08T03:32:08.485Z,15.45
2022-11-08T03:33:08.663Z,15.43
2022-11-08T03:34:08.837Z,15.45
2022-11-08T03:35:09.020Z,15.40
2022-11-08T03:36:09.226Z,15.45
2022-11-08T03:37:09.359Z,15.40
2022-11-08T03:38:09.545Z,15.43
2022-11-08T03:39:09.729Z,15.40
2022-11-08T03:40:09.926Z,15.43
2022-11-08T03:41:10.077Z,15.42
2022-11-08T03:42:10.256Z,15.40
2022-11-08T03:43:10.433Z,15.42
2022-11-08T03:44:10.621Z,15.40
2022-11-08T03:45:10.820Z,15.39
2022-11-08T03:46:10.989Z,15.38
2022-11-08T03:47:11.190Z,15.40
2022-11-08T03:48:11.363Z,15.40
2022-11-08T03:49:11.541Z,15.38
2022-11-08T03:50:11.771Z,15.40
2022-11-08T03:51:11.912Z,15.38
2022-11-08T03:52:12.094Z,15.38
2022-11-08T03:53:12.270Z,15.39
2022-11-08T03:54:12.459Z,15.36
2022-11-08T03:55:12.650Z,15.35
2022-11-08T03:56:12.829Z,15.35
2022-11-08T03:57:13.006Z,15.32
2022-11-08T03:58:13.192Z,15.33
2022-11-08T03:59:13.371Z,15.32
2022-11-08T04:00:13.572Z,15.36
2022-11-08T04:01:13.787Z,15.32
2022-11-08T04:02:14.064Z,15.35
2022-11-08T04:03:14.085Z,15.30
2022-11-08T04:04:14.273Z,15.30
2022-11-08T04:05:14.469Z,15.32
2022-11-08T04:06:14.643Z,15.30
2022-11-08T04:07:14.836Z,15.28
2022-11-08T04:08:15.250Z,15.33
2022-11-08T04:09:20.476Z,15.30
2022-11-08T04:10:16.373Z,15.27
2022-11-08T04:11:15.563Z,15.28
2022-11-08T04:12:15.710Z,15.30
2022-11-08T04:13:15.880Z,15.28
2022-11-08T04:14:16.067Z,15.27
2022-11-08T04:15:16.248Z,15.27
2022-11-08T04:16:17.978Z,15.24
2022-11-08T04:17:16.597Z,15.24
2022-11-08T04:18:17.259Z,15.22
2022-11-08T04:19:16.947Z,15.25
2022-11-08T04:20:17.136Z,15.22
2022-11-08T04:21:17.332Z,15.21
2022-11-08T04:22:17.518Z,15.21
2022-11-08T04:23:17.693Z,15.22
2022-11-08T04:24:17.880Z,15.21
2022-11-08T04:25:18.065Z,15.20
2022-11-08T04:26:18.251Z,15.18
2022-11-08T04:27:18.439Z,15.17
2022-11-08T04:28:18.884Z,15.18
2022-11-08T04:29:18.787Z,15.15
2022-11-08T04:30:18.977Z,15.15
2022-11-08T04:31:19.156Z,15.17
2022-11-08T04:32:19.580Z,15.17
2022-11-08T04:33:19.520Z,15.15
2022-11-08T04:34:19.713Z,15.12
2022-11-08T04:35:19.874Z,15.14
2022-11-08T04:36:20.065Z,15.14
2022-11-08T04:37:20.243Z,15.14
2022-11-08T04:38:20.920Z,15.09
2022-11-08T04:39:20.581Z,15.12
2022-11-08T04:40:20.762Z,15.09
2022-11-08T04:41:20.943Z,15.14
2022-11-08T04:42:21.143Z,15.09
2022-11-08T04:43:21.308Z,15.10
2022-11-08T04:44:21.493Z,15.10
2022-11-08T04:45:21.691Z,15.07
2022-11-08T04:46:21.861Z,15.05
2022-11-08T04:47:22.092Z,15.05
2022-11-08T04:48:22.252Z,15.03
2022-11-08T04:49:22.416Z,15.02
2022-11-08T04:50:22.596Z,14.99
2022-11-08T04:51:22.784Z,15.03
2022-11-08T04:52:22.990Z,15.00
2022-11-08T04:53:23.126Z,15.02
2022-11-08T04:54:23.319Z,14.99
2022-11-08T04:55:23.498Z,15.00
2022-11-08T04:56:23.697Z,15.00
2022-11-08T04:57:23.846Z,15.00
2022-11-08T04:58:24.028Z,14.98
2022-11-08T04:59:24.207Z,14.96
2022-11-08T05:00:24.378Z,14.98
2022-11-08T05:01:24.745Z,14.98
2022-11-08T05:02:24.897Z,14.96
2022-11-08T05:03:24.934Z,14.95
2022-11-08T05:04:25.120Z,14.95
2022-11-08T05:05:25.304Z,14.95
2022-11-08T05:06:25.489Z,14.91
2022-11-08T05:07:25.700Z,14.92
2022-11-08T05:08:25.834Z,14.91
2022-11-08T05:09:26.021Z,14.91
2022-11-08T05:10:26.205Z,14.91
2022-11-08T05:11:26.391Z,14.88
2022-11-08T05:12:26.596Z,14.88
2022-11-08T05:13:26.761Z,14.87
2022-11-08T05:14:26.948Z,14.85
2022-11-08T05:15:27.142Z,14.87
2022-11-08T05:16:27.315Z,14.85
2022-11-08T05:17:27.519Z,14.87
2022-11-08T05:18:27.653Z,14.81
2022-11-08T05:19:27.846Z,14.82
2022-11-08T05:20:28.025Z,14.81
2022-11-08T05:21:28.212Z,14.81
2022-11-08T05:22:28.428Z,14.82
2022-11-08T05:23:28.590Z,14.82
2022-11-08T05:24:28.775Z,14.78
2022-11-08T05:25:28.924Z,14.78
2022-11-08T05:26:29.095Z,14.81
2022-11-08T05:27:29.316Z,14.77
2022-11-08T05:28:29.451Z,14.78
2022-11-08T05:29:29.645Z,14.77
2022-11-08T05:30:29.819Z,14.77
2022-11-08T05:31:29.997Z,14.77
2022-11-08T05:32:30.201Z,14.73
2022-11-08T05:33:30.370Z,14.72
2022-11-08T05:34:30.497Z,14.72
2022-11-08T05:35:30.690Z,14.77
2022-11-08T05:36:30.875Z,14.69
2022-11-08T05:37:31.069Z,14.72
2022-11-08T05:38:31.248Z,14.70
2022-11-08T05:39:32.333Z,14.69
2022-11-08T05:40:33.549Z,14.65
2022-11-08T05:41:31.797Z,14.65
2022-11-08T05:42:31.974Z,14.69
2022-11-08T05:43:32.171Z,14.69
2022-11-08T05:44:32.343Z,14.67
2022-11-08T05:45:32.531Z,14.66
2022-11-08T05:46:32.717Z,14.66
2022-11-08T05:47:32.926Z,14.65
2022-11-08T05:48:33.067Z,14.65
2022-11-08T05:49:33.244Z,14.62
2022-11-08T05:50:33.423Z,14.62
2022-11-08T05:51:33.612Z,14.60
2022-11-08T05:52:33.815Z,14.62
2022-11-08T05:53:33.996Z,14.59
2022-11-08T05:54:34.167Z,14.57
2022-11-08T05:55:34.350Z,14.63
2022-11-08T05:56:34.533Z,14.62
2022-11-08T05:57:34.764Z,14.59
2022-11-08T05:58:34.905Z,14.55
2022-11-08T05:59:35.097Z,14.60
2022-11-08T06:00:35.275Z,14.55
2022-11-08T06:01:35.524Z,14.54
2022-11-08T06:02:35.786Z,14.55
2022-11-08T06:03:35.884Z,14.52
2022-11-08T06:04:35.995Z,14.52
2022-11-08T06:05:36.186Z,14.54
2022-11-08T06:06:36.366Z,14.54
2022-11-08T06:07:36.574Z,14.50
2022-11-08T06:08:36.726Z,14.51
2022-11-08T06:09:36.893Z,14.48
2022-11-08T06:10:37.048Z,14.52
2022-11-08T06:11:37.218Z,14.51
2022-11-08T06:12:37.403Z,14.48
2022-11-08T06:13:37.565Z,14.51
2022-11-08T06:14:37.721Z,14.50
2022-11-08T06:15:37.914Z,14.45
2022-11-08T06:16:38.070Z,14.45
2022-11-08T06:17:38.280Z,14.45
2022-11-08T06:18:38.416Z,14.45
2022-11-08T06:19:38.560Z,14.47
2022-11-08T06:20:38.722Z,14.42
2022-11-08T06:21:38.885Z,14.47
2022-11-08T06:22:39.096Z,14.48
2022-11-08T06:23:39.218Z,14.44
2022-11-08T06:24:39.371Z,14.42
2022-11-08T06:25:41.094Z,14.41
2022-11-08T06:26:39.723Z,14.40
2022-11-08T06:27:39.915Z,14.44
2022-11-08T06:28:40.045Z,14.42
2022-11-08T06:29:40.198Z,14.41
2022-11-08T06:30:40.363Z,14.42
2022-11-08T06:31:42.991Z,14.44
2022-11-08T06:32:40.721Z,14.41
2022-11-08T06:33:40.878Z,14.41
2022-11-08T06:34:41.034Z,14.41
2022-11-08T06:35:41.231Z,14.37
2022-11-08T06:36:41.375Z,14.40
2022-11-08T06:37:41.559Z,14.40
2022-11-08T06:38:41.736Z,14.41
2022-11-08T06:39:41.917Z,14.37
2022-11-08T06:40:42.070Z,14.37
2022-11-08T06:41:42.236Z,14.37
2022-11-08T06:42:42.400Z,14.40
2022-11-08T06:43:42.571Z,14.34
2022-11-08T06:44:42.731Z,14.34
2022-11-08T06:45:42.894Z,14.36
2022-11-08T06:46:43.078Z,14.41
2022-11-08T06:47:43.246Z,14.36
2022-11-08T06:48:43.399Z,14.36
2022-11-08T06:49:43.569Z,14.37
2022-11-08T06:50:43.736Z,14.34
2022-11-08T06:51:43.946Z,14.41
2022-11-08T06:52:44.083Z,14.36
2022-11-08T06:53:44.274Z,14.36
2022-11-08T06:54:44.420Z,14.34
2022-11-08T06:55:44.615Z,14.36
2022-11-08T06:56:44.780Z,14.37
2022-11-08T06:57:45.006Z,14.37
2022-11-08T06:58:45.156Z,14.34
2022-11-08T06:59:45.310Z,14.36
2022-11-08T07:00:45.491Z,14.40
2022-11-08T07:01:46.193Z,14.40
2022-11-08T07:02:46.079Z,14.34
2022-11-08T07:03:46.053Z,14.36
2022-11-08T07:04:46.237Z,14.40
2022-11-08T07:05:46.424Z,14.36
2022-11-08T07:06:46.615Z,14.34
2022-11-08T07:07:46.775Z,14.34
2022-11-08T07:08:46.953Z,14.37
2022-11-08T07:09:47.137Z,14.36
2022-11-08T07:10:47.315Z,14.36
2022-11-08T07:11:47.474Z,14.37
2022-11-08T07:12:47.649Z,14.36
2022-11-08T07:13:47.814Z,14.36
2022-11-08T07:14:47.977Z,14.36
2022-11-08T07:15:48.162Z,14.37
2022-11-08T07:16:49.270Z,14.36
2022-11-08T07:17:48.496Z,14.37
2022-11-08T07:18:48.714Z,14.40
2022-11-08T07:19:48.834Z,14.40
2022-11-08T07:20:48.986Z,14.41
2022-11-08T07:21:49.180Z,14.42
2022-11-08T07:22:49.303Z,14.42
2022-11-08T07:23:49.455Z,14.47
2022-11-08T07:24:49.613Z,14.48
2022-11-08T07:25:49.776Z,14.50
2022-11-08T07:26:49.964Z,14.54
2022-11-08T07:27:50.111Z,14.75
2022-11-08T07:28:50.292Z,15.00
2022-11-08T07:29:50.447Z,15.18
2022-11-08T07:30:50.610Z,15.49
2022-11-08T07:31:50.777Z,15.91
2022-11-08T07:32:50.950Z,16.13
2022-11-08T07:33:51.116Z,16.10
2022-11-08T07:34:51.280Z,15.95
2022-11-08T07:35:51.467Z,15.95
2022-11-08T07:36:51.627Z,16.01
2022-11-08T07:37:51.785Z,16.04
2022-11-08T07:38:51.975Z,16.07
2022-11-08T07:39:52.110Z,16.29
2022-11-08T07:40:52.295Z,16.44
2022-11-08T07:41:52.453Z,16.64
2022-11-08T07:43:53.813Z,16.87
2022-11-08T07:44:52.974Z,16.96
2022-11-08T07:45:53.126Z,17.09
2022-11-08T07:46:53.285Z,17.20
2022-11-08T07:47:53.448Z,17.16
2022-11-08T07:48:53.631Z,17.16
2022-11-08T07:49:53.812Z,17.13
2022-11-08T07:50:53.976Z,17.17
2022-11-08T07:51:54.149Z,17.17
2022-11-08T07:52:54.319Z,17.21
2022-11-08T07:53:57.015Z,17.24
2022-11-08T07:54:54.657Z,17.27
2022-11-08T07:55:54.828Z,17.39
2022-11-08T07:56:54.992Z,17.52
2022-11-08T07:57:55.157Z,17.76
2022-11-08T07:58:55.350Z,17.92
2022-11-08T07:59:55.488Z,18.02
2022-11-08T08:00:55.658Z,18.15
2022-11-08T08:01:55.898Z,18.35
2022-11-08T08:02:56.063Z,18.35
2022-11-08T08:03:56.239Z,18.35
2022-11-08T08:04:56.318Z,18.37
2022-11-08T08:06:00.802Z,18.42
2022-11-08T08:06:57.662Z,18.56
2022-11-08T08:07:56.832Z,18.68
2022-11-08T08:08:57.035Z,18.73
2022-11-08T08:09:57.194Z,18.76
2022-11-08T08:10:57.350Z,18.76
2022-11-08T08:11:57.520Z,18.75
2022-11-08T08:12:57.676Z,18.76
2022-11-08T08:13:57.855Z,18.82
2022-11-08T08:14:58.024Z,18.96
2022-11-08T08:15:58.183Z,19.27
2022-11-08T08:16:58.368Z,19.53
2022-11-08T08:17:58.544Z,19.71
2022-11-08T08:18:58.736Z,19.94
2022-11-08T08:19:58.886Z,20.04
2022-11-08T08:20:59.044Z,20.06
2022-11-08T08:21:59.226Z,20.06
2022-11-08T08:22:59.376Z,19.99
2022-11-08T08:23:59.567Z,19.96
2022-11-08T08:25:03.026Z,20.02
2022-11-08T08:25:59.891Z,20.14
2022-11-08T08:27:00.047Z,20.21
2022-11-08T08:28:00.207Z,20.41
2022-11-08T08:29:00.400Z,20.61
2022-11-08T08:30:00.548Z,20.88
2022-11-08T08:31:00.727Z,21.12
2022-11-08T08:32:00.956Z,21.35
2022-11-08T08:33:26.382Z,21.52
2022-11-08T08:34:02.288Z,21.72
2022-11-08T08:35:01.430Z,21.67
2022-11-08T08:36:01.653Z,21.56
2022-11-08T08:37:01.788Z,21.34
2022-11-08T08:38:01.961Z,21.18
2022-11-08T08:39:02.159Z,21.03
2022-11-08T08:40:02.309Z,20.88
2022-11-08T08:41:02.468Z,20.79
2022-11-08T08:42:02.642Z,20.67
2022-11-08T08:43:02.802Z,20.61
2022-11-08T08:44:02.977Z,20.54
2022-11-08T08:45:03.135Z,20.46
2022-11-08T08:46:03.279Z,20.41
2022-11-08T08:47:03.453Z,20.39
2022-11-08T08:48:03.633Z,20.30
2022-11-08T08:49:03.799Z,20.27
2022-11-08T08:50:03.947Z,20.26
2022-11-08T08:51:04.124Z,20.19
2022-11-08T08:52:04.304Z,20.15
2022-11-08T08:53:04.466Z,20.11
2022-11-08T08:54:04.697Z,20.12
2022-11-08T08:55:04.823Z,20.06
2022-11-08T08:56:04.977Z,20.04
2022-11-08T08:58:20.236Z,19.99
2022-11-08T09:02:21.937Z,19.94
2022-11-08T09:03:21.613Z,19.93
2022-11-08T09:04:21.264Z,19.93
2022-11-08T09:05:21.421Z,19.94
2022-11-08T09:06:21.603Z,19.91
2022-11-08T09:07:21.807Z,19.90
2022-11-08T09:08:21.954Z,19.90
2022-11-08T09:09:22.094Z,19.89
2022-11-08T09:10:22.274Z,19.89
2022-11-08T09:11:22.424Z,19.90
2022-11-08T09:12:22.640Z,19.85
2022-11-08T09:13:22.778Z,19.82
2022-11-08T09:14:22.958Z,19.83
2022-11-08T09:15:23.131Z,19.83
2022-11-08T09:16:23.311Z,19.81
2022-11-08T09:17:23.497Z,19.85
2022-11-08T09:18:23.716Z,19.86
2022-11-08T09:19:23.835Z,19.89
2022-11-08T09:20:24.070Z,19.91
2022-11-08T09:21:24.224Z,19.94
2022-11-08T09:22:24.400Z,19.96
2022-11-08T09:23:24.597Z,20.05
2022-11-08T09:24:24.722Z,20.04
2022-11-08T09:25:24.877Z,20.06
2022-11-08T09:26:25.147Z,20.08
2022-11-08T09:27:25.338Z,20.05
2022-11-08T09:28:29.928Z,20.08
2022-11-08T09:29:26.655Z,20.06
2022-11-08T09:30:25.810Z,20.11
2022-11-08T09:31:25.982Z,20.09
2022-11-08T09:32:39.669Z,20.09
2022-11-08T09:34:26.505Z,20.15
2022-11-08T09:35:26.667Z,20.12
2022-11-08T09:36:26.816Z,20.17
2022-11-08T09:37:26.981Z,20.17
2022-11-08T09:38:27.118Z,20.17
2022-11-08T09:39:27.308Z,20.20
2022-11-08T09:40:27.643Z,20.17
2022-11-08T09:41:27.655Z,20.23
2022-11-08T09:42:27.834Z,20.26
2022-11-08T09:43:28.001Z,20.27
2022-11-08T09:44:28.160Z,20.29
2022-11-08T09:45:28.362Z,20.30
2022-11-08T09:46:28.512Z,20.36
2022-11-08T09:47:28.681Z,20.38
2022-11-08T09:48:28.851Z,20.41
2022-11-08T09:49:29.011Z,20.39
2022-11-08T09:50:29.179Z,20.45
2022-11-08T09:51:29.352Z,20.46
2022-11-08T09:52:29.516Z,20.52
2022-11-08T09:53:29.669Z,20.60
2022-11-08T09:54:29.833Z,20.61
2022-11-08T09:55:30.002Z,20.63
2022-11-08T09:56:30.172Z,20.70
2022-11-08T09:57:30.324Z,20.74
2022-11-08T09:58:30.492Z,20.81
2022-11-08T09:59:30.654Z,20.84
2022-11-08T10:00:30.841Z,20.85
2022-11-08T10:01:31.032Z,20.96
2022-11-08T10:02:31.155Z,21.03
2022-11-08T10:03:31.305Z,21.06
2022-11-08T10:04:31.510Z,21.14
2022-11-08T10:05:31.685Z,21.19
2022-11-08T10:06:31.882Z,21.23
2022-11-08T10:07:32.008Z,21.26
2022-11-08T10:08:32.171Z,21.29
2022-11-08T10:09:32.333Z,21.29
2022-11-08T10:10:32.509Z,21.31
2022-11-08T10:11:32.659Z,21.34
2022-11-08T10:12:32.822Z,21.34
2022-11-08T10:13:33.036Z,21.37
2022-11-08T10:14:33.961Z,21.37
2022-11-08T10:15:33.374Z,21.38
2022-11-08T10:16:33.533Z,21.39
2022-11-08T10:17:33.700Z,21.41
2022-11-08T10:18:33.861Z,21.47
2022-11-08T10:19:34.020Z,21.50
2022-11-08T10:20:34.232Z,21.49
2022-11-08T10:21:34.351Z,21.57
2022-11-08T10:22:34.511Z,21.62
2022-11-08T10:23:34.670Z,21.64
2022-11-08T10:24:34.834Z,21.71
2022-11-08T10:25:35.003Z,21.71
2022-11-08T10:26:35.197Z,21.75
2022-11-08T10:27:35.347Z,21.81
2022-11-08T10:28:35.513Z,21.84
2022-11-08T10:29:35.663Z,21.90
2022-11-08T10:30:35.858Z,21.93
2022-11-08T10:31:36.042Z,21.94
2022-11-08T10:32:36.207Z,21.97
2022-11-08T10:33:36.366Z,22.04
2022-11-08T10:34:36.528Z,22.09
2022-11-08T10:35:36.696Z,22.11
2022-11-08T10:36:36.867Z,22.16
2022-11-08T10:37:37.027Z,22.18
2022-11-08T10:38:37.197Z,22.18
2022-11-08T10:39:37.361Z,22.24
2022-11-08T10:40:37.530Z,22.31
2022-11-08T10:41:37.710Z,22.31
2022-11-08T10:42:37.878Z,22.41
2022-11-08T10:43:38.038Z,22.42
2022-11-08T10:44:38.206Z,22.45
2022-11-08T10:45:38.359Z,22.49
2022-11-08T10:46:38.544Z,22.52
2022-11-08T10:47:38.701Z,22.56
2022-11-08T10:48:38.911Z,22.61
2022-11-08T10:49:39.075Z,22.61
2022-11-08T10:50:39.254Z,22.66
2022-11-08T10:51:39.418Z,22.67
2022-11-08T10:52:39.574Z,22.71
2022-11-08T10:53:39.749Z,22.70
2022-11-08T10:54:39.914Z,22.75
2022-11-08T10:55:40.088Z,22.75
2022-11-08T10:56:40.260Z,22.84
2022-11-08T10:57:40.414Z,22.83
2022-11-08T10:58:40.575Z,22.89
2022-11-08T10:59:40.727Z,22.92
2022-11-08T11:00:40.970Z,22.93
2022-11-08T11:01:44.877Z,22.93
2022-11-08T11:02:41.240Z,22.93
2022-11-08T11:03:41.396Z,22.97
2022-11-08T11:04:41.559Z,23.01
2022-11-08T11:05:41.730Z,23.04
2022-11-08T11:06:41.953Z,23.12
2022-11-08T11:07:42.040Z,23.22
2022-11-08T11:08:42.227Z,23.26
2022-11-08T11:09:42.388Z,23.31
2022-11-08T11:10:42.566Z,23.38
2022-11-08T11:11:42.719Z,23.41
2022-11-08T11:12:42.903Z,23.42
2022-11-08T11:13:43.079Z,23.46
2022-11-08T11:14:43.240Z,23.48
2022-11-08T11:15:43.399Z,23.56
2022-11-08T11:16:43.558Z,23.63
2022-11-08T11:17:43.730Z,23.67
2022-11-08T11:18:43.892Z,23.79
2022-11-08T11:19:44.061Z,23.86
2022-11-08T11:20:44.222Z,23.93
2022-11-08T11:21:44.382Z,24.00
2022-11-08T11:22:44.545Z,24.08
2022-11-08T11:23:44.704Z,24.17
2022-11-08T11:24:44.892Z,24.20
2022-11-08T11:25:45.084Z,24.28
2022-11-08T11:26:45.213Z,24.35
2022-11-08T11:27:45.363Z,24.39
2022-11-08T11:28:45.632Z,24.46
2022-11-08T11:29:45.732Z,24.47
2022-11-08T11:30:45.894Z,24.56
2022-11-08T11:31:46.056Z,24.64
2022-11-08T11:32:46.252Z,24.65
2022-11-08T11:33:46.380Z,24.73
2022-11-08T11:34:46.540Z,24.83
2022-11-08T11:35:46.718Z,24.84
2022-11-08T11:36:46.879Z,24.88
2022-11-08T11:37:47.048Z,24.96
2022-11-08T11:38:47.217Z,25.01
2022-11-08T11:39:47.369Z,25.08
2022-11-08T11:40:47.606Z,25.13
2022-11-08T11:41:47.711Z,25.18
2022-11-08T11:42:47.882Z,25.27
2022-11-08T11:43:48.037Z,25.33
2022-11-08T11:44:48.200Z,25.38
2022-11-08T11:45:48.379Z,25.46
2022-11-08T11:46:48.562Z,25.50
2022-11-08T11:47:48.720Z,25.53
2022-11-08T11:48:48.882Z,25.53
2022-11-08T11:49:49.038Z,25.62
2022-11-08T11:50:49.333Z,25.66
2022-11-08T11:51:49.459Z,25.69
2022-11-08T11:52:49.551Z,25.71
2022-11-08T11:53:49.716Z,25.71
2022-11-08T11:54:49.884Z,25.72
2022-11-08T11:55:50.058Z,25.78
2022-11-08T11:56:50.234Z,25.83
2022-11-08T11:57:50.385Z,25.84
2022-11-08T11:58:50.555Z,25.84
2022-11-08T11:59:50.745Z,25.88
2022-11-08T12:00:50.919Z,25.88
2022-11-08T12:01:51.097Z,25.93
2022-11-08T12:02:51.257Z,25.91
2022-11-08T12:03:51.419Z,25.95
2022-11-08T12:04:51.588Z,26.01
2022-11-08T12:05:51.758Z,26.01
2022-11-08T12:06:51.991Z,26.05
2022-11-08T12:07:52.099Z,26.09
2022-11-08T12:08:52.270Z,26.11
2022-11-08T12:09:52.467Z,26.15
2022-11-08T12:10:52.618Z,26.18
2022-11-08T12:11:52.772Z,26.21
2022-11-08T12:12:52.935Z,26.24
2022-11-08T12:13:54.429Z,26.23
2022-11-08T12:14:53.291Z,26.24
2022-11-08T12:15:53.456Z,26.35
2022-11-08T12:16:53.649Z,26.36
2022-11-08T12:17:53.780Z,26.40
2022-11-08T12:18:53.934Z,26.38
2022-11-08T12:19:54.103Z,26.36
2022-11-08T12:20:54.280Z,26.40
2022-11-08T12:21:54.454Z,26.45
2022-11-08T12:22:54.615Z,26.46
2022-11-08T12:23:54.785Z,26.46
2022-11-08T12:24:54.939Z,26.48
2022-11-08T12:25:55.099Z,26.55
2022-11-08T12:26:55.265Z,26.58
2022-11-08T12:27:55.436Z,26.60
2022-11-08T12:28:55.595Z,26.60
2022-11-08T12:29:55.790Z,26.65
2022-11-08T12:30:55.926Z,26.65
2022-11-08T12:31:56.162Z,26.67
2022-11-08T12:32:56.270Z,26.72
2022-11-08T12:33:58.165Z,26.73
2022-11-08T12:34:56.628Z,26.74
2022-11-08T12:35:56.788Z,26.79
2022-11-08T12:36:57.044Z,26.87
2022-11-08T12:37:57.151Z,26.85
2022-11-08T12:38:57.269Z,26.91
2022-11-08T12:39:57.459Z,26.94
2022-11-08T12:40:57.610Z,26.95
2022-11-08T12:41:57.779Z,27.00
2022-11-08T12:42:57.954Z,27.00
2022-11-08T12:43:58.121Z,27.10
2022-11-08T12:44:58.273Z,27.11
2022-11-08T12:45:58.472Z,27.15
2022-11-08T12:46:58.634Z,27.18
2022-11-08T12:47:58.835Z,27.21
2022-11-08T12:48:58.965Z,27.18
2022-11-08T12:49:59.145Z,27.27
2022-11-08T12:51:01.748Z,27.30
2022-11-08T12:51:59.495Z,27.35
2022-11-08T12:52:59.678Z,27.37
2022-11-08T12:53:59.844Z,27.41
2022-11-08T12:55:00.025Z,27.44
2022-11-08T12:56:00.186Z,27.47
2022-11-08T12:57:00.366Z,27.48
2022-11-08T12:58:00.548Z,27.47
2022-11-08T12:59:00.698Z,27.44
2022-11-08T13:00:00.880Z,27.47
2022-11-08T13:01:01.108Z,27.42
2022-11-08T13:02:01.252Z,27.44